sensor_id;sensor_type;location;lat;lon;timestamp;P1;durP1;ratioP1;P2;durP2;ratioP2
27051;SDS011;14601;49.358;8.256;2022-08-21T00:01:41;8.30;;;3.78;;
27051;SDS011;14601;49.358;8.256;2022-08-21T00:04:43;8.27;;;3.70;;
27051;SDS011;14601;49.358;8.256;2022-08-21T00:07:45;7.50;;;3.85;;
27051;SDS011;14601;49.358;8.256;2022-08-21T00:10:48;8.77;;;4.15;;
27051;SDS011;14601;49.358;8.256;2022-08-21T00:13:52;14.60;;;4.57;;
27051;SDS011;14601;49.358;8.256;2022-08-21T00:16:54;13.18;;;4.35;;
27051;SDS011;14601;49.358;8.256;2022-08-21T00:19:56;10.10;;;3.88;;
27051;SDS011;14601;49.358;8.256;2022-08-21T00:22:58;8.88;;;3.97;;
27051;SDS011;14601;49.358;8.256;2022-08-21T00:26:00;9.80;;;4.28;;
27051;SDS011;14601;49.358;8.256;2022-08-21T00:29:04;7.60;;;4.38;;
27051;SDS011;14601;49.358;8.256;2022-08-21T00:32:06;11.80;;;4.50;;
27051;SDS011;14601;49.358;8.256;2022-08-21T00:35:10;9.50;;;4.40;;
27051;SDS011;14601;49.358;8.256;2022-08-21T00:38:14;7.20;;;3.50;;
27051;SDS011;14601;49.358;8.256;2022-08-21T00:41:16;8.80;;;4.00;;
27051;SDS011;14601;49.358;8.256;2022-08-21T00:44:19;8.10;;;3.83;;
27051;SDS011;14601;49.358;8.256;2022-08-21T00:47:21;11.75;;;3.97;;
27051;SDS011;14601;49.358;8.256;2022-08-21T00:50:24;8.60;;;4.20;;
27051;SDS011;14601;49.358;8.256;2022-08-21T00:56:32;9.35;;;4.00;;
27051;SDS011;14601;49.358;8.256;2022-08-21T00:59:36;8.98;;;3.80;;
27051;SDS011;14601;49.358;8.256;2022-08-21T01:02:39;7.07;;;3.70;;
27051;SDS011;14601;49.358;8.256;2022-08-21T01:05:42;8.93;;;4.20;;
27051;SDS011;14601;49.358;8.256;2022-08-21T01:08:44;8.75;;;4.43;;
27051;SDS011;14601;49.358;8.256;2022-08-21T01:11:46;8.48;;;3.55;;
27051;SDS011;14601;49.358;8.256;2022-08-21T01:14:50;11.05;;;4.03;;
27051;SDS011;14601;49.358;8.256;2022-08-21T01:17:52;8.07;;;3.90;;
27051;SDS011;14601;49.358;8.256;2022-08-21T01:21:04;10.52;;;3.70;;
27051;SDS011;14601;49.358;8.256;2022-08-21T01:24:08;7.22;;;3.72;;
27051;SDS011;14601;49.358;8.256;2022-08-21T01:27:09;7.32;;;3.90;;
27051;SDS011;14601;49.358;8.256;2022-08-21T01:30:12;6.90;;;3.45;;
27051;SDS011;14601;49.358;8.256;2022-08-21T01:33:17;7.85;;;3.85;;
27051;SDS011;14601;49.358;8.256;2022-08-21T01:36:22;9.02;;;4.05;;
27051;SDS011;14601;49.358;8.256;2022-08-21T01:39:25;12.20;;;4.50;;
27051;SDS011;14601;49.358;8.256;2022-08-21T01:42:27;6.32;;;3.97;;
27051;SDS011;14601;49.358;8.256;2022-08-21T01:45:29;8.43;;;4.00;;
27051;SDS011;14601;49.358;8.256;2022-08-21T01:48:30;9.38;;;4.20;;
27051;SDS011;14601;49.358;8.256;2022-08-21T01:51:34;8.13;;;4.00;;
27051;SDS011;14601;49.358;8.256;2022-08-21T01:54:36;11.77;;;4.43;;
27051;SDS011;14601;49.358;8.256;2022-08-21T01:57:39;7.35;;;4.40;;
27051;SDS011;14601;49.358;8.256;2022-08-21T02:00:41;10.80;;;4.60;;
27051;SDS011;14601;49.358;8.256;2022-08-21T02:03:43;7.85;;;4.38;;
27051;SDS011;14601;49.358;8.256;2022-08-21T02:06:47;6.00;;;4.30;;
27051;SDS011;14601;49.358;8.256;2022-08-21T02:09:49;6.97;;;4.35;;
27051;SDS011;14601;49.358;8.256;2022-08-21T02:12:51;8.50;;;4.13;;
27051;SDS011;14601;49.358;8.256;2022-08-21T02:15:53;8.48;;;4.85;;
27051;SDS011;14601;49.358;8.256;2022-08-21T02:18:55;8.57;;;4.80;;
27051;SDS011;14601;49.358;8.256;2022-08-21T02:21:58;8.73;;;4.57;;
27051;SDS011;14601;49.358;8.256;2022-08-21T02:25:00;8.80;;;4.93;;
27051;SDS011;14601;49.358;8.256;2022-08-21T02:28:03;5.80;;;4.32;;
27051;SDS011;14601;49.358;8.256;2022-08-21T02:31:06;6.63;;;4.68;;
27051;SDS011;14601;49.358;8.256;2022-08-21T02:34:08;6.82;;;4.82;;
27051;SDS011;14601;49.358;8.256;2022-08-21T02:37:12;8.30;;;4.45;;
27051;SDS011;14601;49.358;8.256;2022-08-21T02:40:14;7.63;;;4.88;;
27051;SDS011;14601;49.358;8.256;2022-08-21T02:43:18;9.85;;;4.93;;
27051;SDS011;14601;49.358;8.256;2022-08-21T02:46:21;9.48;;;5.15;;
27051;SDS011;14601;49.358;8.256;2022-08-21T02:49:23;7.38;;;5.20;;
27051;SDS011;14601;49.358;8.256;2022-08-21T02:52:27;7.93;;;4.90;;
27051;SDS011;14601;49.358;8.256;2022-08-21T02:55:30;5.82;;;4.97;;
27051;SDS011;14601;49.358;8.256;2022-08-21T02:58:34;9.48;;;5.13;;
27051;SDS011;14601;49.358;8.256;2022-08-21T03:04:40;9.20;;;4.90;;
27051;SDS011;14601;49.358;8.256;2022-08-21T03:07:46;8.77;;;4.90;;
27051;SDS011;14601;49.358;8.256;2022-08-21T03:10:51;9.55;;;4.57;;
27051;SDS011;14601;49.358;8.256;2022-08-21T03:13:54;7.73;;;4.53;;
27051;SDS011;14601;49.358;8.256;2022-08-21T03:16:56;8.80;;;4.68;;
27051;SDS011;14601;49.358;8.256;2022-08-21T03:19:58;7.65;;;4.80;;
27051;SDS011;14601;49.358;8.256;2022-08-21T03:23:01;8.98;;;4.88;;
27051;SDS011;14601;49.358;8.256;2022-08-21T03:26:04;9.10;;;4.60;;
27051;SDS011;14601;49.358;8.256;2022-08-21T03:29:06;8.57;;;5.13;;
27051;SDS011;14601;49.358;8.256;2022-08-21T03:32:08;11.07;;;5.28;;
27051;SDS011;14601;49.358;8.256;2022-08-21T03:35:10;7.70;;;4.68;;
27051;SDS011;14601;49.358;8.256;2022-08-21T03:38:13;6.63;;;4.60;;
27051;SDS011;14601;49.358;8.256;2022-08-21T03:41:15;9.80;;;4.63;;
27051;SDS011;14601;49.358;8.256;2022-08-21T03:44:17;6.85;;;4.95;;
27051;SDS011;14601;49.358;8.256;2022-08-21T03:47:19;8.15;;;4.63;;
27051;SDS011;14601;49.358;8.256;2022-08-21T03:50:22;7.47;;;5.13;;
27051;SDS011;14601;49.358;8.256;2022-08-21T03:53:26;7.78;;;4.63;;
27051;SDS011;14601;49.358;8.256;2022-08-21T03:56:30;6.82;;;4.60;;
27051;SDS011;14601;49.358;8.256;2022-08-21T03:59:32;10.25;;;5.40;;
27051;SDS011;14601;49.358;8.256;2022-08-21T04:02:34;9.05;;;5.35;;
27051;SDS011;14601;49.358;8.256;2022-08-21T04:05:36;7.35;;;4.80;;
27051;SDS011;14601;49.358;8.256;2022-08-21T04:08:40;7.55;;;4.88;;
27051;SDS011;14601;49.358;8.256;2022-08-21T04:11:43;8.07;;;4.85;;
27051;SDS011;14601;49.358;8.256;2022-08-21T04:14:46;8.95;;;5.20;;
27051;SDS011;14601;49.358;8.256;2022-08-21T04:17:48;8.90;;;5.22;;
27051;SDS011;14601;49.358;8.256;2022-08-21T04:20:50;8.95;;;4.47;;
27051;SDS011;14601;49.358;8.256;2022-08-21T04:23:55;7.57;;;5.03;;
27051;SDS011;14601;49.358;8.256;2022-08-21T04:26:57;9.05;;;4.82;;
27051;SDS011;14601;49.358;8.256;2022-08-21T04:29:58;10.57;;;5.53;;
27051;SDS011;14601;49.358;8.256;2022-08-21T04:33:01;10.07;;;5.07;;
27051;SDS011;14601;49.358;8.256;2022-08-21T04:36:04;9.25;;;4.90;;
27051;SDS011;14601;49.358;8.256;2022-08-21T04:39:08;8.02;;;5.18;;
27051;SDS011;14601;49.358;8.256;2022-08-21T04:42:10;7.22;;;4.35;;
27051;SDS011;14601;49.358;8.256;2022-08-21T04:45:18;7.38;;;4.80;;
27051;SDS011;14601;49.358;8.256;2022-08-21T04:48:22;10.48;;;5.07;;
27051;SDS011;14601;49.358;8.256;2022-08-21T04:51:27;11.02;;;4.88;;
27051;SDS011;14601;49.358;8.256;2022-08-21T04:54:33;9.48;;;5.35;;
27051;SDS011;14601;49.358;8.256;2022-08-21T04:57:35;11.88;;;5.97;;
27051;SDS011;14601;49.358;8.256;2022-08-21T05:00:37;6.15;;;4.57;;
27051;SDS011;14601;49.358;8.256;2022-08-21T05:03:40;7.88;;;5.05;;
27051;SDS011;14601;49.358;8.256;2022-08-21T05:06:43;7.43;;;4.68;;
27051;SDS011;14601;49.358;8.256;2022-08-21T05:09:49;6.75;;;4.72;;
27051;SDS011;14601;49.358;8.256;2022-08-21T05:12:52;10.18;;;4.80;;
27051;SDS011;14601;49.358;8.256;2022-08-21T05:15:54;8.27;;;4.55;;
27051;SDS011;14601;49.358;8.256;2022-08-21T05:18:56;8.30;;;4.68;;
27051;SDS011;14601;49.358;8.256;2022-08-21T05:21:58;10.73;;;4.80;;
27051;SDS011;14601;49.358;8.256;2022-08-21T05:25:02;12.82;;;4.88;;
27051;SDS011;14601;49.358;8.256;2022-08-21T05:28:05;9.98;;;4.60;;
27051;SDS011;14601;49.358;8.256;2022-08-21T05:31:07;8.95;;;5.05;;
27051;SDS011;14601;49.358;8.256;2022-08-21T05:34:09;7.13;;;4.57;;
27051;SDS011;14601;49.358;8.256;2022-08-21T05:37:11;12.13;;;5.50;;
27051;SDS011;14601;49.358;8.256;2022-08-21T05:40:14;13.07;;;4.22;;
27051;SDS011;14601;49.358;8.256;2022-08-21T05:43:16;9.02;;;4.88;;
27051;SDS011;14601;49.358;8.256;2022-08-21T05:46:18;8.77;;;4.63;;
27051;SDS011;14601;49.358;8.256;2022-08-21T05:49:20;8.82;;;4.53;;
27051;SDS011;14601;49.358;8.256;2022-08-21T05:52:22;7.32;;;4.35;;
27051;SDS011;14601;49.358;8.256;2022-08-21T05:55:25;10.20;;;4.65;;
27051;SDS011;14601;49.358;8.256;2022-08-21T05:58:27;9.13;;;5.00;;
27051;SDS011;14601;49.358;8.256;2022-08-21T06:01:29;9.30;;;4.45;;
27051;SDS011;14601;49.358;8.256;2022-08-21T06:04:34;12.02;;;4.38;;
27051;SDS011;14601;49.358;8.256;2022-08-21T06:07:37;9.98;;;4.68;;
27051;SDS011;14601;49.358;8.256;2022-08-21T06:10:40;6.85;;;4.10;;
27051;SDS011;14601;49.358;8.256;2022-08-21T06:13:42;7.55;;;4.20;;
27051;SDS011;14601;49.358;8.256;2022-08-21T06:16:44;9.32;;;4.22;;
27051;SDS011;14601;49.358;8.256;2022-08-21T06:19:50;8.60;;;4.32;;
27051;SDS011;14601;49.358;8.256;2022-08-21T06:22:53;8.63;;;4.00;;
27051;SDS011;14601;49.358;8.256;2022-08-21T06:25:56;9.20;;;4.32;;
27051;SDS011;14601;49.358;8.256;2022-08-21T06:28:58;9.25;;;4.15;;
27051;SDS011;14601;49.358;8.256;2022-08-21T06:32:00;8.57;;;4.20;;
27051;SDS011;14601;49.358;8.256;2022-08-21T06:35:03;7.63;;;4.30;;
27051;SDS011;14601;49.358;8.256;2022-08-21T06:38:06;6.30;;;3.90;;
27051;SDS011;14601;49.358;8.256;2022-08-21T06:41:10;6.53;;;3.80;;
27051;SDS011;14601;49.358;8.256;2022-08-21T06:44:12;6.95;;;3.47;;
27051;SDS011;14601;49.358;8.256;2022-08-21T06:47:17;6.85;;;3.47;;
27051;SDS011;14601;49.358;8.256;2022-08-21T06:50:19;6.97;;;3.67;;
27051;SDS011;14601;49.358;8.256;2022-08-21T06:53:21;6.65;;;4.00;;
27051;SDS011;14601;49.358;8.256;2022-08-21T06:56:24;11.10;;;4.43;;
27051;SDS011;14601;49.358;8.256;2022-08-21T06:59:26;9.65;;;4.07;;
27051;SDS011;14601;49.358;8.256;2022-08-21T07:02:28;8.82;;;4.05;;
27051;SDS011;14601;49.358;8.256;2022-08-21T07:05:30;9.93;;;4.10;;
27051;SDS011;14601;49.358;8.256;2022-08-21T07:08:32;8.63;;;4.40;;
27051;SDS011;14601;49.358;8.256;2022-08-21T07:11:37;11.80;;;4.13;;
27051;SDS011;14601;49.358;8.256;2022-08-21T07:14:39;5.97;;;3.75;;
27051;SDS011;14601;49.358;8.256;2022-08-21T07:17:41;10.82;;;4.82;;
27051;SDS011;14601;49.358;8.256;2022-08-21T07:20:43;5.55;;;3.80;;
27051;SDS011;14601;49.358;8.256;2022-08-21T07:23:46;13.63;;;4.20;;
27051;SDS011;14601;49.358;8.256;2022-08-21T07:26:50;10.10;;;4.55;;
27051;SDS011;14601;49.358;8.256;2022-08-21T07:29:52;9.40;;;3.95;;
27051;SDS011;14601;49.358;8.256;2022-08-21T07:32:54;9.30;;;3.78;;
27051;SDS011;14601;49.358;8.256;2022-08-21T07:35:56;6.68;;;3.47;;
27051;SDS011;14601;49.358;8.256;2022-08-21T07:39:00;7.00;;;3.00;;
27051;SDS011;14601;49.358;8.256;2022-08-21T07:42:03;7.30;;;3.47;;
27051;SDS011;14601;49.358;8.256;2022-08-21T07:45:06;6.72;;;3.10;;
27051;SDS011;14601;49.358;8.256;2022-08-21T07:48:10;8.80;;;3.45;;
27051;SDS011;14601;49.358;8.256;2022-08-21T07:51:13;10.27;;;3.63;;
27051;SDS011;14601;49.358;8.256;2022-08-21T07:54:16;10.13;;;3.20;;
27051;SDS011;14601;49.358;8.256;2022-08-21T07:57:21;6.32;;;2.75;;
27051;SDS011;14601;49.358;8.256;2022-08-21T08:00:24;7.82;;;3.13;;
27051;SDS011;14601;49.358;8.256;2022-08-21T08:03:27;6.93;;;3.72;;
27051;SDS011;14601;49.358;8.256;2022-08-21T08:06:30;6.85;;;2.90;;
27051;SDS011;14601;49.358;8.256;2022-08-21T08:09:31;7.82;;;3.20;;
27051;SDS011;14601;49.358;8.256;2022-08-21T08:12:36;5.20;;;2.80;;
27051;SDS011;14601;49.358;8.256;2022-08-21T08:15:40;7.45;;;3.35;;
27051;SDS011;14601;49.358;8.256;2022-08-21T08:18:42;10.60;;;3.40;;
27051;SDS011;14601;49.358;8.256;2022-08-21T08:21:44;7.03;;;3.25;;
27051;SDS011;14601;49.358;8.256;2022-08-21T08:24:46;6.22;;;3.30;;
27051;SDS011;14601;49.358;8.256;2022-08-21T08:27:50;6.35;;;3.10;;
27051;SDS011;14601;49.358;8.256;2022-08-21T08:30:52;5.18;;;3.00;;
27051;SDS011;14601;49.358;8.256;2022-08-21T08:33:54;8.02;;;3.60;;
27051;SDS011;14601;49.358;8.256;2022-08-21T08:36:56;6.07;;;3.05;;
27051;SDS011;14601;49.358;8.256;2022-08-21T08:39:59;6.35;;;2.83;;
27051;SDS011;14601;49.358;8.256;2022-08-21T08:43:03;5.05;;;3.20;;
27051;SDS011;14601;49.358;8.256;2022-08-21T08:46:09;6.78;;;3.20;;
27051;SDS011;14601;49.358;8.256;2022-08-21T08:49:17;11.02;;;3.30;;
27051;SDS011;14601;49.358;8.256;2022-08-21T08:52:22;6.80;;;3.08;;
27051;SDS011;14601;49.358;8.256;2022-08-21T08:55:30;7.93;;;3.33;;
27051;SDS011;14601;49.358;8.256;2022-08-21T08:58:39;6.78;;;3.33;;
27051;SDS011;14601;49.358;8.256;2022-08-21T09:01:44;7.20;;;3.65;;
27051;SDS011;14601;49.358;8.256;2022-08-21T09:04:47;8.57;;;3.42;;
27051;SDS011;14601;49.358;8.256;2022-08-21T09:07:55;5.53;;;3.05;;
27051;SDS011;14601;49.358;8.256;2022-08-21T09:11:06;6.15;;;2.80;;
27051;SDS011;14601;49.358;8.256;2022-08-21T09:14:16;6.07;;;3.00;;
27051;SDS011;14601;49.358;8.256;2022-08-21T09:17:30;6.38;;;3.30;;
27051;SDS011;14601;49.358;8.256;2022-08-21T09:20:48;7.38;;;3.38;;
27051;SDS011;14601;49.358;8.256;2022-08-21T09:24:01;6.60;;;3.13;;
27051;SDS011;14601;49.358;8.256;2022-08-21T09:27:20;6.40;;;3.22;;
27051;SDS011;14601;49.358;8.256;2022-08-21T09:30:26;5.00;;;2.90;;
27051;SDS011;14601;49.358;8.256;2022-08-21T09:33:30;9.38;;;3.35;;
27051;SDS011;14601;49.358;8.256;2022-08-21T09:36:37;6.93;;;3.33;;
27051;SDS011;14601;49.358;8.256;2022-08-21T09:39:41;8.15;;;2.95;;
27051;SDS011;14601;49.358;8.256;2022-08-21T09:42:53;8.02;;;2.88;;
27051;SDS011;14601;49.358;8.256;2022-08-21T09:46:08;8.18;;;3.38;;
27051;SDS011;14601;49.358;8.256;2022-08-21T09:49:11;11.05;;;2.95;;
27051;SDS011;14601;49.358;8.256;2022-08-21T09:52:15;6.70;;;3.15;;
27051;SDS011;14601;49.358;8.256;2022-08-21T09:55:21;7.40;;;2.92;;
27051;SDS011;14601;49.358;8.256;2022-08-21T09:58:49;7.10;;;2.80;;
27051;SDS011;14601;49.358;8.256;2022-08-21T10:01:53;8.77;;;2.90;;
27051;SDS011;14601;49.358;8.256;2022-08-21T10:04:57;7.13;;;3.10;;
27051;SDS011;14601;49.358;8.256;2022-08-21T10:08:00;7.82;;;3.03;;
27051;SDS011;14601;49.358;8.256;2022-08-21T10:11:05;8.93;;;3.20;;
27051;SDS011;14601;49.358;8.256;2022-08-21T10:14:12;5.00;;;2.72;;
27051;SDS011;14601;49.358;8.256;2022-08-21T10:17:27;6.82;;;3.20;;
27051;SDS011;14601;49.358;8.256;2022-08-21T10:20:37;12.85;;;3.70;;
27051;SDS011;14601;49.358;8.256;2022-08-21T10:23:49;8.45;;;3.10;;
27051;SDS011;14601;49.358;8.256;2022-08-21T10:27:02;7.32;;;3.10;;
27051;SDS011;14601;49.358;8.256;2022-08-21T10:30:13;5.95;;;3.40;;
27051;SDS011;14601;49.358;8.256;2022-08-21T10:33:23;9.05;;;5.18;;
27051;SDS011;14601;49.358;8.256;2022-08-21T10:36:34;8.50;;;3.90;;
27051;SDS011;14601;49.358;8.256;2022-08-21T10:39:45;9.43;;;3.50;;
27051;SDS011;14601;49.358;8.256;2022-08-21T10:43:02;6.55;;;3.08;;
27051;SDS011;14601;49.358;8.256;2022-08-21T10:46:17;7.97;;;3.45;;
27051;SDS011;14601;49.358;8.256;2022-08-21T10:49:47;8.18;;;3.47;;
27051;SDS011;14601;49.358;8.256;2022-08-21T10:52:59;8.57;;;3.22;;
27051;SDS011;14601;49.358;8.256;2022-08-21T10:56:26;10.45;;;3.60;;
27051;SDS011;14601;49.358;8.256;2022-08-21T10:59:33;9.30;;;3.03;;
27051;SDS011;14601;49.358;8.256;2022-08-21T11:02:40;5.70;;;3.08;;
27051;SDS011;14601;49.358;8.256;2022-08-21T11:05:50;8.75;;;3.17;;
27051;SDS011;14601;49.358;8.256;2022-08-21T11:08:55;7.60;;;2.95;;
27051;SDS011;14601;49.358;8.256;2022-08-21T11:12:03;7.80;;;3.30;;
27051;SDS011;14601;49.358;8.256;2022-08-21T11:15:14;8.68;;;2.85;;
27051;SDS011;14601;49.358;8.256;2022-08-21T11:18:26;5.68;;;3.00;;
27051;SDS011;14601;49.358;8.256;2022-08-21T11:21:36;9.18;;;3.47;;
27051;SDS011;14601;49.358;8.256;2022-08-21T11:24:42;6.15;;;3.20;;
27051;SDS011;14601;49.358;8.256;2022-08-21T11:27:50;7.57;;;3.15;;
27051;SDS011;14601;49.358;8.256;2022-08-21T11:30:58;7.95;;;3.30;;
27051;SDS011;14601;49.358;8.256;2022-08-21T11:34:14;7.68;;;3.45;;
27051;SDS011;14601;49.358;8.256;2022-08-21T11:37:32;7.85;;;3.63;;
27051;SDS011;14601;49.358;8.256;2022-08-21T11:40:51;7.47;;;3.05;;
27051;SDS011;14601;49.358;8.256;2022-08-21T11:44:06;7.28;;;3.20;;
27051;SDS011;14601;49.358;8.256;2022-08-21T11:47:22;6.43;;;3.17;;
27051;SDS011;14601;49.358;8.256;2022-08-21T11:50:34;9.50;;;3.10;;
27051;SDS011;14601;49.358;8.256;2022-08-21T11:53:41;5.40;;;3.20;;
27051;SDS011;14601;49.358;8.256;2022-08-21T11:57:01;6.07;;;2.88;;
27051;SDS011;14601;49.358;8.256;2022-08-21T12:00:11;9.30;;;3.25;;
27051;SDS011;14601;49.358;8.256;2022-08-21T12:03:21;9.52;;;3.55;;
27051;SDS011;14601;49.358;8.256;2022-08-21T12:06:28;9.48;;;3.40;;
27051;SDS011;14601;49.358;8.256;2022-08-21T12:09:33;8.27;;;3.00;;
27051;SDS011;14601;49.358;8.256;2022-08-21T12:12:39;6.03;;;3.30;;
27051;SDS011;14601;49.358;8.256;2022-08-21T12:15:42;6.72;;;3.20;;
27051;SDS011;14601;49.358;8.256;2022-08-21T12:18:43;9.15;;;3.20;;
27051;SDS011;14601;49.358;8.256;2022-08-21T12:21:48;7.65;;;3.10;;
27051;SDS011;14601;49.358;8.256;2022-08-21T12:28:06;7.50;;;3.40;;
27051;SDS011;14601;49.358;8.256;2022-08-21T12:34:23;8.07;;;3.50;;
27051;SDS011;14601;49.358;8.256;2022-08-21T12:37:34;7.78;;;3.70;;
27051;SDS011;14601;49.358;8.256;2022-08-21T12:40:43;6.90;;;3.40;;
27051;SDS011;14601;49.358;8.256;2022-08-21T12:43:48;8.07;;;2.72;;
27051;SDS011;14601;49.358;8.256;2022-08-21T12:46:56;6.05;;;2.85;;
27051;SDS011;14601;49.358;8.256;2022-08-21T12:50:02;6.80;;;3.22;;
27051;SDS011;14601;49.358;8.256;2022-08-21T12:53:09;5.55;;;3.20;;
27051;SDS011;14601;49.358;8.256;2022-08-21T12:56:16;7.35;;;3.25;;
27051;SDS011;14601;49.358;8.256;2022-08-21T12:59:20;8.13;;;3.25;;
27051;SDS011;14601;49.358;8.256;2022-08-21T13:02:24;6.45;;;3.05;;
27051;SDS011;14601;49.358;8.256;2022-08-21T13:05:31;7.93;;;3.10;;
27051;SDS011;14601;49.358;8.256;2022-08-21T13:08:35;5.85;;;3.20;;
27051;SDS011;14601;49.358;8.256;2022-08-21T13:11:39;7.18;;;2.97;;
27051;SDS011;14601;49.358;8.256;2022-08-21T13:14:42;5.28;;;2.70;;
27051;SDS011;14601;49.358;8.256;2022-08-21T13:20:50;6.05;;;2.70;;
27051;SDS011;14601;49.358;8.256;2022-08-21T13:23:52;9.40;;;3.20;;
27051;SDS011;14601;49.358;8.256;2022-08-21T13:26:56;7.63;;;3.05;;
27051;SDS011;14601;49.358;8.256;2022-08-21T13:30:06;10.23;;;3.50;;
27051;SDS011;14601;49.358;8.256;2022-08-21T13:33:11;7.72;;;3.15;;
27051;SDS011;14601;49.358;8.256;2022-08-21T13:36:17;6.45;;;3.00;;
27051;SDS011;14601;49.358;8.256;2022-08-21T13:39:26;5.88;;;3.00;;
27051;SDS011;14601;49.358;8.256;2022-08-21T13:42:29;5.47;;;2.88;;
27051;SDS011;14601;49.358;8.256;2022-08-21T13:45:32;7.40;;;3.20;;
27051;SDS011;14601;49.358;8.256;2022-08-21T13:48:34;6.95;;;3.28;;
27051;SDS011;14601;49.358;8.256;2022-08-21T13:51:37;8.05;;;3.00;;
27051;SDS011;14601;49.358;8.256;2022-08-21T13:54:41;7.53;;;3.30;;
27051;SDS011;14601;49.358;8.256;2022-08-21T13:57:46;7.60;;;3.30;;
27051;SDS011;14601;49.358;8.256;2022-08-21T14:00:48;9.73;;;3.20;;
27051;SDS011;14601;49.358;8.256;2022-08-21T14:03:53;6.78;;;3.30;;
27051;SDS011;14601;49.358;8.256;2022-08-21T14:06:58;8.00;;;2.92;;
27051;SDS011;14601;49.358;8.256;2022-08-21T14:10:01;6.25;;;3.13;;
27051;SDS011;14601;49.358;8.256;2022-08-21T14:13:06;11.23;;;3.40;;
27051;SDS011;14601;49.358;8.256;2022-08-21T14:16:15;6.20;;;3.08;;
27051;SDS011;14601;49.358;8.256;2022-08-21T14:19:20;6.07;;;3.38;;
27051;SDS011;14601;49.358;8.256;2022-08-21T14:25:38;5.32;;;3.10;;
27051;SDS011;14601;49.358;8.256;2022-08-21T14:28:43;6.03;;;3.00;;
27051;SDS011;14601;49.358;8.256;2022-08-21T14:31:48;7.18;;;2.75;;
27051;SDS011;14601;49.358;8.256;2022-08-21T14:34:51;5.97;;;2.80;;
27051;SDS011;14601;49.358;8.256;2022-08-21T14:37:54;6.38;;;3.13;;
27051;SDS011;14601;49.358;8.256;2022-08-21T14:40:57;8.10;;;2.95;;
27051;SDS011;14601;49.358;8.256;2022-08-21T14:44:02;7.00;;;2.90;;
27051;SDS011;14601;49.358;8.256;2022-08-21T14:47:05;6.20;;;3.22;;
27051;SDS011;14601;49.358;8.256;2022-08-21T14:50:08;9.60;;;3.38;;
27051;SDS011;14601;49.358;8.256;2022-08-21T14:53:11;9.63;;;3.22;;
27051;SDS011;14601;49.358;8.256;2022-08-21T14:56:13;6.45;;;3.10;;
27051;SDS011;14601;49.358;8.256;2022-08-21T14:59:17;11.00;;;4.15;;
27051;SDS011;14601;49.358;8.256;2022-08-21T15:02:21;8.73;;;3.50;;
27051;SDS011;14601;49.358;8.256;2022-08-21T15:05:22;7.82;;;3.85;;
27051;SDS011;14601;49.358;8.256;2022-08-21T15:08:24;6.35;;;3.47;;
27051;SDS011;14601;49.358;8.256;2022-08-21T15:11:26;7.50;;;3.85;;
27051;SDS011;14601;49.358;8.256;2022-08-21T15:14:30;6.07;;;3.10;;
27051;SDS011;14601;49.358;8.256;2022-08-21T15:17:35;5.53;;;3.10;;
27051;SDS011;14601;49.358;8.256;2022-08-21T15:20:38;6.50;;;2.97;;
27051;SDS011;14601;49.358;8.256;2022-08-21T15:23:40;9.05;;;3.05;;
27051;SDS011;14601;49.358;8.256;2022-08-21T15:26:42;6.25;;;3.08;;
27051;SDS011;14601;49.358;8.256;2022-08-21T15:29:46;6.50;;;3.05;;
27051;SDS011;14601;49.358;8.256;2022-08-21T15:32:47;7.32;;;3.22;;
27051;SDS011;14601;49.358;8.256;2022-08-21T15:35:49;6.90;;;3.20;;
27051;SDS011;14601;49.358;8.256;2022-08-21T15:38:51;4.32;;;3.22;;
27051;SDS011;14601;49.358;8.256;2022-08-21T15:41:53;6.38;;;2.78;;
27051;SDS011;14601;49.358;8.256;2022-08-21T15:44:57;4.57;;;2.67;;
27051;SDS011;14601;49.358;8.256;2022-08-21T15:47:59;7.57;;;2.80;;
27051;SDS011;14601;49.358;8.256;2022-08-21T15:51:01;4.22;;;2.75;;
27051;SDS011;14601;49.358;8.256;2022-08-21T15:54:03;8.57;;;3.20;;
27051;SDS011;14601;49.358;8.256;2022-08-21T15:57:05;5.43;;;2.75;;
27051;SDS011;14601;49.358;8.256;2022-08-21T16:00:10;5.55;;;3.20;;
27051;SDS011;14601;49.358;8.256;2022-08-21T16:03:15;7.18;;;3.30;;
27051;SDS011;14601;49.358;8.256;2022-08-21T16:06:21;9.85;;;3.30;;
27051;SDS011;14601;49.358;8.256;2022-08-21T16:09:23;4.78;;;2.83;;
27051;SDS011;14601;49.358;8.256;2022-08-21T16:12:26;5.95;;;2.97;;
27051;SDS011;14601;49.358;8.256;2022-08-21T16:15:33;6.95;;;3.13;;
27051;SDS011;14601;49.358;8.256;2022-08-21T16:18:35;12.50;;;8.02;;
27051;SDS011;14601;49.358;8.256;2022-08-21T16:21:37;13.27;;;11.38;;
27051;SDS011;14601;49.358;8.256;2022-08-21T16:24:40;39.40;;;34.35;;
27051;SDS011;14601;49.358;8.256;2022-08-21T16:27:42;21.27;;;16.33;;
27051;SDS011;14601;49.358;8.256;2022-08-21T16:30:48;9.57;;;4.65;;
27051;SDS011;14601;49.358;8.256;2022-08-21T16:33:52;5.72;;;3.85;;
27051;SDS011;14601;49.358;8.256;2022-08-21T16:36:57;6.57;;;3.15;;
27051;SDS011;14601;49.358;8.256;2022-08-21T16:39:59;8.27;;;3.13;;
27051;SDS011;14601;49.358;8.256;2022-08-21T16:43:01;5.63;;;3.17;;
27051;SDS011;14601;49.358;8.256;2022-08-21T16:46:04;3.55;;;2.83;;
27051;SDS011;14601;49.358;8.256;2022-08-21T16:49:06;7.03;;;3.03;;
27051;SDS011;14601;49.358;8.256;2022-08-21T16:52:09;5.45;;;2.60;;
27051;SDS011;14601;49.358;8.256;2022-08-21T16:55:11;8.98;;;3.00;;
27051;SDS011;14601;49.358;8.256;2022-08-21T16:58:14;6.35;;;3.20;;
27051;SDS011;14601;49.358;8.256;2022-08-21T17:01:29;6.18;;;2.80;;
27051;SDS011;14601;49.358;8.256;2022-08-21T17:04:33;6.85;;;3.13;;
27051;SDS011;14601;49.358;8.256;2022-08-21T17:07:35;6.75;;;3.08;;
27051;SDS011;14601;49.358;8.256;2022-08-21T17:10:38;5.93;;;2.78;;
27051;SDS011;14601;49.358;8.256;2022-08-21T17:13:43;6.05;;;2.92;;
27051;SDS011;14601;49.358;8.256;2022-08-21T17:16:47;4.90;;;2.80;;
27051;SDS011;14601;49.358;8.256;2022-08-21T17:19:52;8.90;;;3.67;;
27051;SDS011;14601;49.358;8.256;2022-08-21T17:22:54;9.00;;;3.03;;
27051;SDS011;14601;49.358;8.256;2022-08-21T17:25:56;5.82;;;3.10;;
27051;SDS011;14601;49.358;8.256;2022-08-21T17:28:58;9.90;;;3.80;;
27051;SDS011;14601;49.358;8.256;2022-08-21T17:32:02;5.88;;;3.15;;
27051;SDS011;14601;49.358;8.256;2022-08-21T17:35:05;6.33;;;3.37;;
27051;SDS011;14601;49.358;8.256;2022-08-21T17:38:08;4.82;;;2.90;;
27051;SDS011;14601;49.358;8.256;2022-08-21T17:41:11;4.55;;;3.10;;
27051;SDS011;14601;49.358;8.256;2022-08-21T17:44:13;9.43;;;2.90;;
27051;SDS011;14601;49.358;8.256;2022-08-21T17:47:19;7.22;;;3.63;;
27051;SDS011;14601;49.358;8.256;2022-08-21T17:50:21;6.93;;;3.78;;
27051;SDS011;14601;49.358;8.256;2022-08-21T17:53:23;5.65;;;3.60;;
27051;SDS011;14601;49.358;8.256;2022-08-21T17:56:26;8.30;;;3.90;;
27051;SDS011;14601;49.358;8.256;2022-08-21T18:02:34;6.82;;;3.50;;
27051;SDS011;14601;49.358;8.256;2022-08-21T18:05:37;8.35;;;3.28;;
27051;SDS011;14601;49.358;8.256;2022-08-21T18:08:39;4.97;;;3.28;;
27051;SDS011;14601;49.358;8.256;2022-08-21T18:11:41;8.43;;;3.58;;
27051;SDS011;14601;49.358;8.256;2022-08-21T18:14:43;6.55;;;3.47;;
27051;SDS011;14601;49.358;8.256;2022-08-21T18:17:48;9.15;;;3.53;;
27051;SDS011;14601;49.358;8.256;2022-08-21T18:20:52;6.63;;;3.28;;
27051;SDS011;14601;49.358;8.256;2022-08-21T18:23:56;6.93;;;3.53;;
27051;SDS011;14601;49.358;8.256;2022-08-21T18:26:58;9.93;;;4.93;;
27051;SDS011;14601;49.358;8.256;2022-08-21T18:30:00;14.25;;;5.95;;
27051;SDS011;14601;49.358;8.256;2022-08-21T18:33:03;8.18;;;4.75;;
27051;SDS011;14601;49.358;8.256;2022-08-21T18:36:05;8.18;;;4.45;;
27051;SDS011;14601;49.358;8.256;2022-08-21T18:39:07;9.77;;;4.35;;
27051;SDS011;14601;49.358;8.256;2022-08-21T18:42:10;8.90;;;3.90;;
27051;SDS011;14601;49.358;8.256;2022-08-21T18:45:16;8.40;;;3.63;;
27051;SDS011;14601;49.358;8.256;2022-08-21T18:48:21;13.85;;;4.05;;
27051;SDS011;14601;49.358;8.256;2022-08-21T18:51:23;8.02;;;4.28;;